Time;durP1;ratioP1;P1;durP2;ratioP2;P2;SDS_P1;SDS_P2;PMS_P1;PMS_P2;Temp;Humidity;BMP_temperature;BMP_pressure;BME280_temperature;BME280_humidity;BME280_pressure;Samples;Min_cycle;Max_cycle;Signal;HPM_P1;HPM_P2
2024/01/29 00:00:17;;;;;;;;;;;;;;;21.71;21.41;99492.00;5056261;28;982;-74
2024/01/29 00:02:44;;;;;;;;;;;;;;;21.58;21.90;99497.31;5021843;28;1120;-74
2024/01/29 00:05:09;;;;;;;;;;;;;;;21.88;21.30;99501.69;5037789;28;1291;-73
2024/01/29 00:07:35;;;;;;;;;;;;;;;21.63;21.50;99501.75;5038422;28;937;-74
2024/01/29 00:10:00;;;;;;;;;;;;;;;21.43;21.99;99502.22;5021392;28;1906;-74
2024/01/29 00:12:26;;;;;;;;;;;;;;;21.36;22.06;99501.44;5056075;28;922;-74
2024/01/29 00:14:51;;;;;;;;;;;;;;;21.37;21.81;99505.88;5020106;28;1313;-74
2024/01/29 00:17:17;;;;;;;;;;;;;;;21.50;22.07;99504.22;5037681;28;1358;-74
2024/01/29 00:19:42;;;;;;;;;;;;;;;21.43;22.03;99505.03;4993416;28;1420;-74
2024/01/29 00:22:09;;;;;;;;;;;;;;;21.66;21.58;99506.59;4978359;28;1033;-73
2024/01/29 00:24:35;;;;;;;;;;;;;;;21.69;21.70;99505.78;4993999;28;1033;-74
2024/01/29 00:27:00;;;;;;;;;;;;;;;21.71;21.74;99492.84;4973311;28;1569;-73
2024/01/29 00:29:26;;;;;;;;;;;;;;;21.77;21.75;99491.19;4973179;28;1911;-74
2024/01/29 00:31:51;;;;;;;;;;;;;;;21.75;21.74;99487.94;4942590;28;1028;-74
2024/01/29 00:34:17;;;;;;;;;;;;;;;21.39;21.85;99492.09;4959124;28;984;-74
2024/01/29 00:36:42;;;;;;;;;;;;;;;21.38;21.82;99490.50;4958652;28;1031;-73
2024/01/29 00:39:09;;;;;;;;;;;;;;;21.35;22.14;99488.47;4957627;28;1338;-73
2024/01/29 00:41:35;;;;;;;;;;;;;;;21.40;21.90;99488.03;4942530;28;1025;-74
2024/01/29 00:44:00;;;;;;;;;;;;;;;21.53;21.68;99492.06;4974866;28;1034;-74
2024/01/29 00:46:26;;;;;;;;;;;;;;;21.59;21.81;99484.78;4958165;28;959;-74
2024/01/29 00:48:52;;;;;;;;;;;;;;;21.55;21.81;99483.97;4958183;28;1308;-74
2024/01/29 00:51:18;;;;;;;;;;;;;;;21.61;21.62;99476.69;4987421;28;1977;-73
2024/01/29 00:53:43;;;;;;;;;;;;;;;21.51;21.85;99466.19;4958317;28;1068;-73
2024/01/29 00:56:09;;;;;;;;;;;;;;;21.51;21.88;99450.00;4958999;28;963;-74
2024/01/29 00:58:34;;;;;;;;;;;;;;;21.64;21.80;99447.53;4954798;28;1002;-74
2024/01/29 01:01:00;;;;;;;;;;;;;;;21.63;21.57;99450.78;5013138;28;1413;-74
2024/01/29 01:03:25;;;;;;;;;;;;;;;21.57;21.93;99444.72;5013584;28;1061;-74
2024/01/29 01:05:51;;;;;;;;;;;;;;;21.56;21.59;99454.44;5013768;28;1033;-74
2024/01/29 01:08:16;;;;;;;;;;;;;;;21.51;21.61;99455.69;4996953;28;991;-74
2024/01/29 01:10:42;;;;;;;;;;;;;;;21.48;21.71;99458.50;5012933;28;2068;-74
2024/01/29 01:13:07;;;;;;;;;;;;;;;21.53;21.81;99458.09;5013129;28;1375;-75
2024/01/29 01:15:33;;;;;;;;;;;;;;;21.80;21.47;99467.69;5013227;28;994;-74
2024/01/29 01:17:58;;;;;;;;;;;;;;;21.79;21.24;99460.41;4997146;28;1027;-74
2024/01/29 01:20:24;;;;;;;;;;;;;;;21.75;21.38;99453.94;4996953;28;1026;-74
2024/01/29 01:22:50;;;;;;;;;;;;;;;21.67;21.47;99463.72;4996994;28;1444;-73
2024/01/29 01:25:15;;;;;;;;;;;;;;;21.64;21.40;99470.19;4996413;28;1446;-74
2024/01/29 01:27:41;;;;;;;;;;;;;;;21.28;22.08;99470.25;4997180;28;1105;-74
2024/01/29 01:30:07;;;;;;;;;;;;;;;21.23;22.23;99473.50;5015598;28;1989;-73
2024/01/29 01:32:32;;;;;;;;;;;;;;;21.63;21.44;99476.28;5017109;28;1266;-74
2024/01/29 01:34:58;;;;;;;;;;;;;;;21.48;21.99;99481.16;4999743;28;1471;-74
2024/01/29 01:37:23;;;;;;;;;;;;;;;21.57;21.60;99487.22;5016341;28;1438;-74
2024/01/29 01:39:52;;;;;;;;;;;;;;;21.42;21.92;99479.97;5000238;28;1446;-74
2024/01/29 01:42:18;;;;;;;;;;;;;;;21.52;21.56;99490.47;5005911;28;1542;-73
2024/01/29 01:44:45;;;;;;;;;;;;;;;21.69;21.40;99495.25;4977751;28;1160;-74
2024/01/29 01:47:10;;;;;;;;;;;;;;;21.52;21.75;99501.78;4977820;28;1076;-73
2024/01/29 01:49:36;;;;;;;;;;;;;;;21.42;21.61;99496.97;4977085;28;1906;-73
2024/01/29 01:52:02;;;;;;;;;;;;;;;21.56;21.50;99496.94;4981661;28;998;-74
2024/01/29 01:54:27;;;;;;;;;;;;;;;21.77;21.36;99491.19;4996723;28;1096;-74
2024/01/29 01:56:53;;;;;;;;;;;;;;;21.77;21.42;99488.38;4997107;28;1096;-74
2024/01/29 01:59:18;;;;;;;;;;;;;;;21.67;21.46;99492.03;4980202;28;1446;-74
2024/01/29 02:01:45;;;;;;;;;;;;;;;21.72;21.35;99487.97;4997142;28;1038;-73
2024/01/29 02:04:10;;;;;;;;;;;;;;;21.53;21.67;99494.91;4996946;28;1191;-74
2024/01/29 02:06:36;;;;;;;;;;;;;;;21.81;21.19;99496.81;4996444;28;1083;-73
2024/01/29 02:09:01;;;;;;;;;;;;;;;21.67;21.54;99497.69;4996448;28;1472;-73
2024/01/29 02:11:27;;;;;;;;;;;;;;;21.71;21.55;99484.34;4980816;28;1975;-74
2024/01/29 02:13:52;;;;;;;;;;;;;;;21.68;21.63;99492.84;4980405;28;1420;-73
2024/01/29 02:16:18;;;;;;;;;;;;;;;21.70;21.42;99490.41;5000016;28;1019;-73
2024/01/29 02:18:43;;;;;;;;;;;;;;;21.64;21.57;99483.53;4999377;28;1468;-74
2024/01/29 02:21:09;;;;;;;;;;;;;;;22.04;21.10;99487.84;4999588;28;1002;-74
2024/01/29 02:23:34;;;;;;;;;;;;;;;21.74;21.27;99485.53;5016290;28;968;-74
2024/01/29 02:26:00;;;;;;;;;;;;;;;21.84;21.07;99474.16;4999840;28;1300;-74
2024/01/29 02:28:27;;;;;;;;;;;;;;;21.72;21.36;99471.78;5015694;28;1417;-74
2024/01/29 02:30:53;;;;;;;;;;;;;;;21.78;21.35;99478.63;5003203;28;1914;-74
2024/01/29 02:33:19;;;;;;;;;;;;;;;21.37;21.73;99471.91;5023800;28;1617;-74
2024/01/29 02:35:47;;;;;;;;;;;;;;;21.33;21.79;99484.03;5058079;28;971;-73
2024/01/29 02:38:13;;;;;;;;;;;;;;;21.76;21.14;99483.09;5035586;28;1159;-74
2024/01/29 02:40:38;;;;;;;;;;;;;;;21.76;21.22;99486.75;5000969;28;1673;-74
2024/01/29 02:43:04;;;;;;;;;;;;;;;21.92;21.10;99479.81;5035682;28;1016;-74
2024/01/29 02:45:29;;;;;;;;;;;;;;;21.82;21.21;99487.13;5002702;28;1177;-74
2024/01/29 02:47:55;;;;;;;;;;;;;;;21.76;21.41;99483.91;4979653;28;1009;-74
2024/01/29 02:50:22;;;;;;;;;;;;;;;21.76;21.03;99483.91;4995334;28;1910;-74
2024/01/29 02:52:48;;;;;;;;;;;;;;;21.85;21.19;99481.44;4980075;28;925;-74
2024/01/29 02:55:14;;;;;;;;;;;;;;;21.75;21.02;99482.28;4980169;28;1042;-73
2024/01/29 02:57:39;;;;;;;;;;;;;;;21.95;20.78;99482.59;4979620;28;956;-73
2024/01/29 03:00:05;;;;;;;;;;;;;;;21.80;21.26;99490.34;4995618;28;1420;-73
2024/01/29 03:02:31;;;;;;;;;;;;;;;21.72;21.31;99491.63;4963232;28;987;-74
2024/01/29 03:04:56;;;;;;;;;;;;;;;21.84;21.12;99494.00;4979619;28;1152;-74
2024/01/29 03:07:22;;;;;;;;;;;;;;;21.44;21.33;99495.31;4979557;28;1015;-74
2024/01/29 03:09:47;;;;;;;;;;;;;;;21.27;21.92;99499.78;4994972;28;2036;-74
2024/01/29 03:12:13;;;;;;;;;;;;;;;21.41;21.54;99490.50;4979614;28;1080;-73
2024/01/29 03:14:38;;;;;;;;;;;;;;;21.52;21.25;99499.75;4995724;28;983;-75
2024/01/29 03:17:04;;;;;;;;;;;;;;;21.68;21.19;99493.66;4975803;28;1067;-74
2024/01/29 03:19:29;;;;;;;;;;;;;;;21.52;21.22;99507.47;4988419;28;1510;-74
2024/01/29 03:21:55;;;;;;;;;;;;;;;21.62;21.34;99505.81;5015156;28;1112;-74
2024/01/29 03:24:21;;;;;;;;;;;;;;;21.74;21.29;99502.53;5014955;28;1115;-74
2024/01/29 03:26:46;;;;;;;;;;;;;;;21.91;20.86;99509.34;4982651;28;1190;-73
2024/01/29 03:29:12;;;;;;;;;;;;;;;21.90;21.08;99502.88;4998043;28;1981;-74
2024/01/29 03:31:37;;;;;;;;;;;;;;;21.87;21.06;99502.91;4998509;28;1294;-74
2024/01/29 03:34:03;;;;;;;;;;;;;;;21.69;20.88;99500.13;4998731;28;1004;-74
2024/01/29 03:36:28;;;;;;;;;;;;;;;21.87;21.00;99505.75;5014554;28;1111;-74
2024/01/29 03:38:54;;;;;;;;;;;;;;;21.98;20.70;99500.84;5014341;28;1302;-74
2024/01/29 03:41:19;;;;;;;;;;;;;;;22.02;20.62;99504.44;4998511;28;1025;-74
2024/01/29 03:43:45;;;;;;;;;;;;;;;21.81;20.70;99492.00;4978932;28;1424;-73
2024/01/29 03:46:10;;;;;;;;;;;;;;;21.57;21.36;99502.19;4978974;28;963;-73
2024/01/29 03:48:36;;;;;;;;;;;;;;;21.41;21.47;99513.16;4994742;28;1502;-73
2024/01/29 03:51:01;;;;;;;;;;;;;;;21.70;21.16;99513.06;4994276;28;1963;-74
2024/01/29 03:53:27;;;;;;;;;;;;;;;21.83;21.00;99517.06;4994539;28;983;-73
2024/01/29 03:55:52;;;;;;;;;;;;;;;21.44;21.38;99522.84;4994551;28;1368;-74
2024/01/29 03:58:20;;;;;;;;;;;;;;;21.52;21.08;99518.78;4978656;28;1271;-74
2024/01/29 04:00:45;;;;;;;;;;;;;;;21.53;21.34;99520.41;4994246;28;1338;-74
2024/01/29 04:03:11;;;;;;;;;;;;;;;21.92;20.67;99519.47;4978623;28;990;-74
2024/01/29 04:05:36;;;;;;;;;;;;;;;21.76;20.93;99520.75;4994788;28;1059;-74
2024/01/29 04:08:02;;;;;;;;;;;;;;;21.93;20.51;99532.44;4978165;28;1031;-74
2024/01/29 04:10:27;;;;;;;;;;;;;;;21.94;20.53;99531.22;4976496;28;1906;-74
2024/01/29 04:12:53;;;;;;;;;;;;;;;21.78;21.08;99531.66;4990907;28;1503;-74
2024/01/29 04:15:18;;;;;;;;;;;;;;;21.62;21.12;99529.28;5022948;28;1426;-74
2024/01/29 04:17:44;;;;;;;;;;;;;;;21.43;21.12;99532.56;5033993;28;957;-74
2024/01/29 04:20:09;;;;;;;;;;;;;;;21.50;21.09;99541.03;5016393;28;1385;-74
2024/01/29 04:22:35;;;;;;;;;;;;;;;21.45;21.16;99535.78;4999712;28;1395;-74
2024/01/29 04:25:02;;;;;;;;;;;;;;;21.56;20.95;99536.59;5033203;28;1526;-73
2024/01/29 04:27:27;;;;;;;;;;;;;;;21.79;20.94;99522.75;5034339;28;1347;-74
2024/01/29 04:29:53;;;;;;;;;;;;;;;21.64;21.14;99532.50;5034870;28;1906;-74
2024/01/29 04:32:18;;;;;;;;;;;;;;;21.56;20.96;99542.25;5017275;28;926;-74
2024/01/29 04:34:44;;;;;;;;;;;;;;;21.70;20.88;99553.53;5018431;28;1242;-73
2024/01/29 04:37:09;;;;;;;;;;;;;;;21.73;20.59;99552.72;4996824;28;1534;-74
2024/01/29 04:39:37;;;;;;;;;;;;;;;21.97;20.29;99550.22;4997673;28;949;-73
2024/01/29 04:42:02;;;;;;;;;;;;;;;21.93;20.43;99557.94;4981128;28;1454;-74
2024/01/29 04:44:28;;;;;;;;;;;;;;;21.89;20.51;99565.63;5013952;28;954;-73
2024/01/29 04:46:53;;;;;;;;;;;;;;;21.58;21.07;99568.13;4996565;28;1618;-74
2024/01/29 04:49:19;;;;;;;;;;;;;;;21.70;20.70;99570.53;5013257;28;1973;-73
2024/01/29 04:51:44;;;;;;;;;;;;;;;21.44;20.98;99573.81;4996983;28;948;-74
2024/01/29 04:54:10;;;;;;;;;;;;;;;21.18;21.16;99575.81;5013936;28;1080;-74
2024/01/29 04:56:35;;;;;;;;;;;;;;;21.62;20.67;99574.59;4980743;28;1492;-74
2024/01/29 04:59:01;;;;;;;;;;;;;;;21.57;20.76;99573.00;5013650;28;941;-73
2024/01/29 05:01:26;;;;;;;;;;;;;;;21.91;20.23;99574.53;5013757;28;1029;-74
2024/01/29 05:03:53;;;;;;;;;;;;;;;21.97;20.46;99572.91;4997261;28;1128;-74
2024/01/29 05:06:19;;;;;;;;;;;;;;;21.58;20.58;99585.13;4984972;28;1331;-74
2024/01/29 05:08:45;;;;;;;;;;;;;;;21.76;20.43;99577.41;5012516;28;955;-74
2024/01/29 05:11:10;;;;;;;;;;;;;;;21.66;20.56;99585.91;5001006;28;1919;-74
2024/01/29 05:13:36;;;;;;;;;;;;;;;21.68;20.56;99578.63;5017388;28;1001;-74
2024/01/29 05:16:01;;;;;;;;;;;;;;;22.00;20.39;99586.25;4984764;28;1123;-73
2024/01/29 05:18:27;;;;;;;;;;;;;;;21.97;20.18;99596.38;5017635;28;1120;-74
2024/01/29 05:20:52;;;;;;;;;;;;;;;21.92;20.40;99604.50;5000940;28;1198;-74
2024/01/29 05:23:18;;;;;;;;;;;;;;;21.86;20.47;99606.91;5017424;28;1033;-74
2024/01/29 05:25:44;;;;;;;;;;;;;;;21.94;20.46;99607.72;5000362;28;1179;-73
2024/01/29 05:28:09;;;;;;;;;;;;;;;21.45;20.66;99596.06;5000959;28;871;-74
2024/01/29 05:30:35;;;;;;;;;;;;;;;21.56;20.60;99599.69;4977976;28;1965;-74
2024/01/29 05:33:00;;;;;;;;;;;;;;;21.73;20.36;99603.72;4977901;28;1055;-74
2024/01/29 05:35:26;;;;;;;;;;;;;;;21.25;20.96;99601.31;4977819;28;948;-73
2024/01/29 05:37:51;;;;;;;;;;;;;;;21.62;20.85;99602.94;4961745;28;1089;-74
2024/01/29 05:40:17;;;;;;;;;;;;;;;21.72;20.41;99595.63;4974536;28;1094;-73
2024/01/29 05:42:42;;;;;;;;;;;;;;;21.72;20.44;99599.28;5000613;28;955;-74
2024/01/29 05:45:08;;;;;;;;;;;;;;;21.58;20.63;99596.47;4984323;28;1511;-74
2024/01/29 05:47:34;;;;;;;;;;;;;;;21.81;20.27;99587.50;5000658;28;1258;-74
2024/01/29 05:50:00;;;;;;;;;;;;;;;21.86;20.49;99589.91;5016890;28;1899;-73
2024/01/29 05:52:25;;;;;;;;;;;;;;;21.63;20.54;99586.75;5000624;28;892;-74
2024/01/29 05:54:51;;;;;;;;;;;;;;;21.42;21.01;99574.22;5000571;28;975;-74
2024/01/29 05:57:19;;;;;;;;;;;;;;;21.53;20.58;99582.69;4977665;28;1071;-74
2024/01/29 05:59:44;;;;;;;;;;;;;;;21.51;20.84;99579.47;4977699;28;981;-74
2024/01/29 06:02:10;;;;;;;;;;;;;;;21.55;20.54;99580.25;4977615;28;1108;-74
2024/01/29 06:04:36;;;;;;;;;;;;;;;21.63;20.46;99586.75;4977378;28;934;-74
2024/01/29 06:07:01;;;;;;;;;;;;;;;21.64;20.46;99589.16;4981157;28;961;-74
2024/01/29 06:09:27;;;;;;;;;;;;;;;21.65;20.78;99585.09;5000206;28;1976;-73
2024/01/29 06:11:54;;;;;;;;;;;;;;;21.43;20.83;99590.00;4983903;28;1085;-74
2024/01/29 06:14:20;;;;;;;;;;;;;;;21.51;20.75;99596.47;4980493;28;976;-73
2024/01/29 06:16:45;;;;;;;;;;;;;;;21.42;20.71;99590.41;4980242;28;1018;-74
2024/01/29 06:19:15;;;;;;;;;;;;;;;21.26;20.91;99594.44;4980320;28;1005;-74
2024/01/29 06:21:49;;;;;;;;;;;;;;;21.32;20.74;99595.66;4980875;28;992;-73
2024/01/29 06:24:15;;;;;;;;;;;;;;;21.53;20.83;99594.84;4980404;28;1267;-74
2024/01/29 06:26:41;;;;;;;;;;;;;;;21.49;20.58;99598.88;4980201;28;998;-74
2024/01/29 06:29:06;;;;;;;;;;;;;;;21.49;20.94;99594.03;4957713;28;1027;-74
2024/01/29 06:31:32;;;;;;;;;;;;;;;21.70;20.49;99600.88;4957826;28;1906;-74
2024/01/29 06:33:58;;;;;;;;;;;;;;;21.66;20.36;99600.91;4957422;28;1019;-74
2024/01/29 06:36:23;;;;;;;;;;;;;;;21.79;20.44;99607.75;4941750;29;1190;-73
2024/01/29 06:38:49;;;;;;;;;;;;;;;21.63;20.33;99603.75;4941541;29;1073;-74
2024/01/29 06:41:20;;;;;;;;;;;;;;;21.72;20.50;99613.44;4941379;29;982;-74
2024/01/29 06:43:46;;;;;;;;;;;;;;;21.66;20.36;99615.06;4957644;29;1142;-73
2024/01/29 06:46:11;;;;;;;;;;;;;;;21.85;20.11;99611.78;4991313;28;1010;-74
2024/01/29 06:48:37;;;;;;;;;;;;;;;22.02;20.04;99631.97;4996052;28;978;-74
2024/01/29 06:51:03;;;;;;;;;;;;;;;21.84;20.34;99624.34;4996272;28;1979;-73
2024/01/29 06:53:29;;;;;;;;;;;;;;;21.62;20.81;99631.25;4960400;28;1205;-73
2024/01/29 06:55:55;;;;;;;;;;;;;;;21.39;21.00;99645.81;4960243;28;1259;-73
2024/01/29 06:58:20;;;;;;;;;;;;;;;21.36;20.81;99645.84;4960379;28;1104;-74
2024/01/29 07:00:46;;;;;;;;;;;;;;;21.61;20.59;99643.00;4976672;28;1044;-74
2024/01/29 07:03:11;;;;;;;;;;;;;;;21.75;20.55;99640.94;4960284;28;1163;-74
2024/01/29 07:05:37;;;;;;;;;;;;;;;21.70;20.56;99643.38;4981038;28;1078;-74
2024/01/29 07:08:02;;;;;;;;;;;;;;;21.77;20.44;99638.53;4998986;28;998;-74
2024/01/29 07:10:28;;;;;;;;;;;;;;;21.56;20.59;99627.22;4998962;28;1981;-73
2024/01/29 07:12:53;;;;;;;;;;;;;;;21.78;20.47;99628.81;4987126;28;1170;-74
2024/01/29 07:15:19;;;;;;;;;;;;;;;21.65;20.71;99624.75;5015380;28;1156;-74
2024/01/29 07:17:45;;;;;;;;;;;;;;;21.85;20.51;99625.94;4999094;28;947;-73
2024/01/29 07:20:11;;;;;;;;;;;;;;;21.52;20.71;99627.22;4998671;28;999;-74
2024/01/29 07:22:38;;;;;;;;;;;;;;;21.50;20.65;99623.16;5015362;28;1001;-74
2024/01/29 07:25:06;;;;;;;;;;;;;;;21.08;21.35;99619.06;5022115;28;1248;-74
2024/01/29 07:27:32;;;;;;;;;;;;;;;20.94;21.25;99619.88;5017267;28;1000;-74
2024/01/29 07:29:57;;;;;;;;;;;;;;;21.65;20.72;99613.44;5037037;28;1906;-74
2024/01/29 07:32:23;;;;;;;;;;;;;;;21.77;20.53;99606.56;5057290;28;933;-74
2024/01/29 07:34:48;;;;;;;;;;;;;;;21.63;20.90;99615.06;5055958;28;912;-73
2024/01/29 07:37:14;;;;;;;;;;;;;;;21.84;20.21;99618.66;5057099;28;958;-74
2024/01/29 07:39:39;;;;;;;;;;;;;;;21.72;20.64;99621.94;5039358;28;975;-74
2024/01/29 07:42:05;;;;;;;;;;;;;;;21.68;20.56;99638.13;5056857;28;921;-74
2024/01/29 07:44:30;;;;;;;;;;;;;;;21.68;20.35;99635.28;5055794;28;1053;-74
2024/01/29 07:46:56;;;;;;;;;;;;;;;21.66;20.67;99636.91;5038557;28;1051;-74
2024/01/29 07:49:21;;;;;;;;;;;;;;;21.61;20.69;99640.97;5055682;28;1915;-74
2024/01/29 07:51:47;;;;;;;;;;;;;;;21.54;20.70;99636.09;5056884;28;963;-74
2024/01/29 07:54:12;;;;;;;;;;;;;;;21.65;20.57;99653.09;5055671;28;1071;-74
2024/01/29 07:56:42;;;;;;;;;;;;;;;21.62;20.58;99648.25;5056763;28;955;-73
2024/01/29 07:59:07;;;;;;;;;;;;;;;21.62;20.64;99648.25;5038710;28;909;-74
2024/01/29 08:01:33;;;;;;;;;;;;;;;21.44;20.95;99653.09;5055304;28;940;-74
2024/01/29 08:04:01;;;;;;;;;;;;;;;21.24;21.30;99656.31;5056887;28;1039;-74
2024/01/29 08:06:27;;;;;;;;;;;;;;;21.46;20.79;99659.19;5038654;28;911;-74
2024/01/29 08:08:52;;;;;;;;;;;;;;;21.74;20.62;99662.00;5055256;28;904;-73
2024/01/29 08:11:18;;;;;;;;;;;;;;;21.75;20.61;99669.28;5014047;28;1981;-73
2024/01/29 08:13:43;;;;;;;;;;;;;;;21.78;20.47;99668.47;4997907;28;1414;-74
2024/01/29 08:16:09;;;;;;;;;;;;;;;21.70;20.36;99669.69;5014400;28;936;-73
2024/01/29 08:18:34;;;;;;;;;;;;;;;21.71;20.37;99685.50;5014033;28;1035;-74
2024/01/29 08:21:00;;;;;;;;;;;;;;;20.93;21.49;99691.00;4997464;28;981;-73
2024/01/29 08:23:26;;;;;;;;;;;;;;;21.13;21.44;99695.09;4997700;28;1114;-74
2024/01/29 08:25:52;;;;;;;;;;;;;;;21.41;21.10;99702.06;4981305;28;1257;-74
2024/01/29 08:28:17;;;;;;;;;;;;;;;21.52;20.58;99708.53;4965258;28;941;-73
2024/01/29 08:30:43;;;;;;;;;;;;;;;21.62;20.81;99707.75;4997616;28;1977;-74
2024/01/29 08:33:08;;;;;;;;;;;;;;;21.88;20.34;99705.72;4997378;28;944;-74
2024/01/29 08:35:34;;;;;;;;;;;;;;;21.64;20.55;99713.81;4997704;28;998;-74
2024/01/29 08:37:59;;;;;;;;;;;;;;;21.51;20.70;99709.75;4997620;28;1071;-73
2024/01/29 08:40:25;;;;;;;;;;;;;;;21.28;21.07;99719.38;5013885;28;1124;-74
2024/01/29 08:42:50;;;;;;;;;;;;;;;21.43;20.86;99717.41;4955354;29;1057;-74
2024/01/29 08:45:17;;;;;;;;;;;;;;;21.53;20.93;99713.00;4955428;29;819;-74
2024/01/29 08:47:43;;;;;;;;;;;;;;;21.43;21.11;99720.25;4958230;28;844;-73
2024/01/29 08:50:08;;;;;;;;;;;;;;;21.57;20.99;99725.94;4994251;28;1879;-73
2024/01/29 08:52:35;;;;;;;;;;;;;;;21.64;20.68;99719.47;4994142;28;1045;-74
2024/01/29 08:55:00;;;;;;;;;;;;;;;21.67;20.54;99718.66;4994242;28;1004;-74
2024/01/29 08:57:27;;;;;;;;;;;;;;;21.73;20.51;99730.41;4994210;28;1073;-73
2024/01/29 08:59:53;;;;;;;;;;;;;;;21.51;20.58;99744.56;4994354;28;1013;-73
2024/01/29 09:02:18;;;;;;;;;;;;;;;21.43;20.75;99744.94;4977577;28;947;-74
2024/01/29 09:04:44;;;;;;;;;;;;;;;21.28;20.94;99742.03;4993742;28;995;-73
2024/01/29 09:07:09;;;;;;;;;;;;;;;21.47;20.70;99742.94;4994167;28;970;-74
2024/01/29 09:09:35;;;;;;;;;;;;;;;21.60;20.59;99746.97;4993941;28;1910;-74
2024/01/29 09:12:01;;;;;;;;;;;;;;;21.67;20.76;99743.34;4994421;28;983;-73
2024/01/29 09:14:27;;;;;;;;;;;;;;;21.59;20.63;99745.34;5039638;28;972;-74
2024/01/29 09:16:53;;;;;;;;;;;;;;;21.63;20.53;99748.19;5055486;28;835;-73
2024/01/29 09:19:20;;;;;;;;;;;;;;;21.71;20.44;99747.81;5054277;28;808;-74
2024/01/29 09:21:49;;;;;;;;;;;;;;;21.46;20.77;99738.47;5055440;28;703;-74
2024/01/29 09:24:14;;;;;;;;;;;;;;;21.69;20.56;99744.56;5053839;28;1568;-74
2024/01/29 09:26:40;;;;;;;;;;;;;;;21.61;20.59;99740.13;5050173;28;1214;-73
2024/01/29 09:29:06;;;;;;;;;;;;;;;21.76;20.73;99738.91;5017961;28;943;-74
2024/01/29 09:31:32;;;;;;;;;;;;;;;21.81;20.52;99741.34;5017957;28;1910;-74
2024/01/29 09:33:58;;;;;;;;;;;;;;;21.62;20.64;99738.91;5035478;28;965;-75
2024/01/29 09:36:23;;;;;;;;;;;;;;;21.50;20.84;99737.28;5035137;28;859;-75
2024/01/29 09:38:49;;;;;;;;;;;;;;;21.26;21.22;99732.34;5001352;28;1222;-71
2024/01/29 09:41:14;;;;;;;;;;;;;;;21.55;20.76;99727.53;5035462;28;838;-73
2024/01/29 09:43:40;;;;;;;;;;;;;;;21.64;20.65;99725.13;5035155;28;909;-73
2024/01/29 09:46:05;;;;;;;;;;;;;;;21.73;20.45;99722.72;5001669;28;742;-73
2024/01/29 09:48:32;;;;;;;;;;;;;;;21.65;20.80;99723.91;5001367;28;787;-73
2024/01/29 09:50:58;;;;;;;;;;;;;;;21.78;20.51;99727.16;5020055;28;1963;-73
2024/01/29 09:53:23;;;;;;;;;;;;;;;21.77;20.42;99722.72;5038850;28;1037;-74
2024/01/29 09:55:50;;;;;;;;;;;;;;;21.52;20.84;99728.38;5004731;28;1116;-75
2024/01/29 09:58:16;;;;;;;;;;;;;;;21.78;20.42;99722.31;4987891;28;873;-74
2024/01/29 10:00:41;;;;;;;;;;;;;;;21.41;20.89;99717.03;5021391;28;817;-74
2024/01/29 10:03:08;;;;;;;;;;;;;;;21.25;21.20;99717.38;5039161;28;873;-74
2024/01/29 10:05:33;;;;;;;;;;;;;;;21.19;21.23;99720.97;5020918;28;1189;-74
2024/01/29 10:07:59;;;;;;;;;;;;;;;21.29;21.24;99732.31;5004977;28;1374;-74
2024/01/29 10:10:24;;;;;;;;;;;;;;;21.63;20.77;99717.84;5020767;28;1972;-74
2024/01/29 10:12:50;;;;;;;;;;;;;;;21.78;20.53;99716.63;5004517;28;1242;-74
2024/01/29 10:15:15;;;;;;;;;;;;;;;21.59;21.05;99706.50;5021106;28;994;-74
2024/01/29 10:17:41;;;;;;;;;;;;;;;21.91;20.43;99716.22;5021075;28;950;-73
2024/01/29 10:20:17;;;;;;;;;;;;;;;21.58;20.99;99712.59;5038617;28;987;-74
2024/01/29 10:22:43;;;;;;;;;;;;;;;21.64;20.85;99705.31;5020769;28;1065;-74
2024/01/29 10:25:08;;;;;;;;;;;;;;;21.77;20.60;99700.06;5015996;28;1022;-74
2024/01/29 10:27:34;;;;;;;;;;;;;;;21.58;20.76;99695.59;5000055;28;1062;-74
2024/01/29 10:29:59;;;;;;;;;;;;;;;21.42;20.82;99701.66;4999584;28;1985;-74
2024/01/29 10:32:25;;;;;;;;;;;;;;;21.19;21.33;99699.16;4983301;28;1509;-74
2024/01/29 10:34:50;;;;;;;;;;;;;;;21.36;21.02;99696.78;4999720;28;1033;-74
2024/01/29 10:37:16;;;;;;;;;;;;;;;21.64;20.87;99699.63;4999765;28;1117;-74
2024/01/29 10:39:42;;;;;;;;;;;;;;;21.59;20.73;99705.69;4999680;28;996;-75
2024/01/29 10:42:07;;;;;;;;;;;;;;;21.41;20.91;99699.22;4999497;28;999;-75
2024/01/29 10:44:35;;;;;;;;;;;;;;;21.81;20.45;99696.00;4999659;28;1004;-74
2024/01/29 10:47:00;;;;;;;;;;;;;;;21.45;20.83;99705.69;4999645;28;942;-74
2024/01/29 10:49:27;;;;;;;;;;;;;;;21.36;21.08;99702.47;4983459;28;960;-74
2024/01/29 10:51:53;;;;;;;;;;;;;;;21.53;21.00;99693.16;4999697;28;1146;-74
2024/01/29 10:54:19;;;;;;;;;;;;;;;21.31;21.20;99698.81;4999082;28;952;-74
2024/01/29 10:56:44;;;;;;;;;;;;;;;21.51;20.91;99687.09;5015366;28;1039;-74
2024/01/29 10:59:12;;;;;;;;;;;;;;;21.52;20.75;99700.03;5020048;28;1060;-74
2024/01/29 11:01:37;;;;;;;;;;;;;;;21.75;20.83;99697.59;5003021;28;903;-74
2024/01/29 11:04:03;;;;;;;;;;;;;;;21.73;20.64;99700.03;5037338;28;877;-74
2024/01/29 11:06:52;;;;;;;;;;;;;;;21.54;20.63;99703.28;5004331;28;735;-75
2024/01/29 11:09:18;;;;;;;;;;;;;;;21.71;20.93;99696.81;4956998;29;1034;-74
2024/01/29 11:11:44;;;;;;;;;;;;;;;21.67;20.60;99684.69;4956853;29;1980;-74
2024/01/29 11:14:10;;;;;;;;;;;;;;;21.66;20.60;99683.06;4941079;29;1137;-74
2024/01/29 11:16:36;;;;;;;;;;;;;;;21.64;20.63;99691.13;4941016;29;1296;-74
2024/01/29 11:19:01;;;;;;;;;;;;;;;21.47;20.84;99691.94;4915331;29;1302;-74
2024/01/29 11:21:27;;;;;;;;;;;;;;;21.38;20.90;99689.50;4915357;29;1217;-74
2024/01/29 11:23:54;;;;;;;;;;;;;;;21.39;20.86;99690.31;4862480;29;1016;-75
2024/01/29 11:26:21;;;;;;;;;;;;;;;21.44;21.10;99681.41;4862277;29;1161;-74
2024/01/29 11:28:54;;;;;;;;;;;;;;;21.36;20.94;99696.78;4862268;29;1082;-74
2024/01/29 11:31:19;;;;;;;;;;;;;;;21.32;21.34;99685.47;4877788;29;1972;-75
2024/01/29 11:33:45;;;;;;;;;;;;;;;21.33;21.05;99676.56;4861915;29;991;-74
2024/01/29 11:36:13;;;;;;;;;;;;;;;21.55;20.89;99682.22;4877587;29;1146;-74
2024/01/29 11:38:39;;;;;;;;;;;;;;;21.63;20.75;99677.38;4862094;29;1135;-74
2024/01/29 11:41:04;;;;;;;;;;;;;;;21.66;20.76;99666.06;4877573;29;1117;-74
2024/01/29 11:43:32;;;;;;;;;;;;;;;21.91;20.51;99673.72;4862129;29;960;-74
2024/01/29 11:45:57;;;;;;;;;;;;;;;21.83;20.71;99665.22;4885556;29;1230;-74
2024/01/29 11:48:26;;;;;;;;;;;;;;;21.62;20.70;99665.25;4936957;29;1013;-74
2024/01/29 11:50:52;;;;;;;;;;;;;;;21.74;20.81;99656.31;4928239;29;1906;-74
2024/01/29 11:53:18;;;;;;;;;;;;;;;21.73;20.46;99651.88;4921117;29;893;-74
2024/01/29 11:55:46;;;;;;;;;;;;;;;21.76;20.48;99659.59;4937875;28;796;-74
2024/01/29 11:58:18;;;;;;;;;;;;;;;21.73;20.51;99649.03;4943804;28;970;-74
2024/01/29 12:00:44;;;;;;;;;;;;;;;21.74;20.52;99656.31;4943640;28;1140;-74
2024/01/29 12:03:10;;;;;;;;;;;;;;;21.73;20.59;99646.22;4943209;28;1099;-75
2024/01/29 12:05:36;;;;;;;;;;;;;;;21.35;20.85;99649.84;4959307;28;1033;-74
2024/01/29 12:08:02;;;;;;;;;;;;;;;21.27;20.96;99655.50;4959210;28;1168;-74
2024/01/29 12:10:27;;;;;;;;;;;;;;;21.45;20.89;99657.53;4958958;28;1907;-74
2024/01/29 12:12:53;;;;;;;;;;;;;;;21.19;21.12;99665.19;4974666;28;782;-75
2024/01/29 12:15:19;;;;;;;;;;;;;;;21.62;20.68;99659.59;4927269;28;1228;-74
2024/01/29 12:17:45;;;;;;;;;;;;;;;21.74;20.81;99656.31;4959127;28;882;-75
2024/01/29 12:20:11;;;;;;;;;;;;;;;21.63;20.84;99649.06;4955771;29;949;-74
2024/01/29 12:22:39;;;;;;;;;;;;;;;21.48;20.77;99660.38;4988011;28;993;-74
2024/01/29 12:25:08;;;;;;;;;;;;;;;21.63;20.93;99644.19;4997558;28;1258;-74
2024/01/29 12:27:34;;;;;;;;;;;;;;;21.85;20.64;99657.13;4988141;28;1112;-76
2024/01/29 12:30:03;;;;;;;;;;;;;;;21.63;20.68;99654.72;5016924;28;1989;-74
2024/01/29 12:32:29;;;;;;;;;;;;;;;21.63;20.60;99660.38;4994310;28;1342;-75
2024/01/29 12:34:54;;;;;;;;;;;;;;;21.70;20.58;99649.84;4994350;28;976;-75
2024/01/29 12:37:21;;;;;;;;;;;;;;;21.75;20.49;99662.81;4994517;28;962;-75
2024/01/29 12:40:04;;;;;;;;;;;;;;;21.81;20.61;99664.84;4961775;28;980;-74
2024/01/29 12:42:30;;;;;;;;;;;;;;;22.02;20.17;99657.50;4994296;28;994;-75
2024/01/29 12:44:55;;;;;;;;;;;;;;;21.69;20.72;99670.09;4994049;28;1131;-75
2024/01/29 12:47:21;;;;;;;;;;;;;;;21.70;20.56;99672.50;4994159;28;972;-74
2024/01/29 12:49:47;;;;;;;;;;;;;;;21.79;20.57;99675.75;4997232;28;1922;-75
2024/01/29 12:52:13;;;;;;;;;;;;;;;21.74;20.44;99662.00;4997410;28;1006;-74